sensor_id;sensor_type;location;lat;lon;timestamp;P1;durP1;ratioP1;P2;durP2;ratioP2
66870;SDS011;53780;44.998;9.926;2023-04-16T00:01:51;6.95;;;2.47;;
66870;SDS011;53780;44.998;9.926;2023-04-16T00:04:54;6.70;;;2.50;;
66870;SDS011;53780;44.998;9.926;2023-04-16T00:07:58;6.93;;;2.50;;
66870;SDS011;53780;44.998;9.926;2023-04-16T00:11:02;6.38;;;2.60;;
66870;SDS011;53780;44.998;9.926;2023-04-16T00:14:06;8.00;;;2.60;;
66870;SDS011;53780;44.998;9.926;2023-04-16T00:17:10;6.82;;;2.75;;
66870;SDS011;53780;44.998;9.926;2023-04-16T00:20:13;7.25;;;3.00;;
66870;SDS011;53780;44.998;9.926;2023-04-16T00:23:18;10.02;;;2.90;;
66870;SDS011;53780;44.998;9.926;2023-04-16T00:26:22;7.00;;;3.22;;
66870;SDS011;53780;44.998;9.926;2023-04-16T00:29:26;6.20;;;2.97;;
66870;SDS011;53780;44.998;9.926;2023-04-16T00:32:31;8.18;;;3.35;;
66870;SDS011;53780;44.998;9.926;2023-04-16T00:35:35;8.95;;;3.90;;
66870;SDS011;53780;44.998;9.926;2023-04-16T00:38:38;9.57;;;3.55;;
66870;SDS011;53780;44.998;9.926;2023-04-16T00:41:42;8.77;;;4.10;;
66870;SDS011;53780;44.998;9.926;2023-04-16T00:44:46;9.40;;;4.40;;
66870;SDS011;53780;44.998;9.926;2023-04-16T00:47:50;13.73;;;6.00;;
66870;SDS011;53780;44.998;9.926;2023-04-16T00:50:54;11.63;;;5.15;;
66870;SDS011;53780;44.998;9.926;2023-04-16T00:53:58;11.32;;;5.20;;
66870;SDS011;53780;44.998;9.926;2023-04-16T00:57:02;11.00;;;5.63;;
66870;SDS011;53780;44.998;9.926;2023-04-16T01:00:07;10.70;;;5.50;;
66870;SDS011;53780;44.998;9.926;2023-04-16T01:03:12;13.10;;;5.70;;
66870;SDS011;53780;44.998;9.926;2023-04-16T01:06:16;11.15;;;4.97;;
66870;SDS011;53780;44.998;9.926;2023-04-16T01:09:21;10.40;;;4.47;;
66870;SDS011;53780;44.998;9.926;2023-04-16T01:12:25;8.35;;;4.25;;
66870;SDS011;53780;44.998;9.926;2023-04-16T01:15:28;7.27;;;4.03;;
66870;SDS011;53780;44.998;9.926;2023-04-16T01:18:32;8.52;;;3.95;;
66870;SDS011;53780;44.998;9.926;2023-04-16T01:21:36;9.18;;;3.92;;
66870;SDS011;53780;44.998;9.926;2023-04-16T01:24:39;8.05;;;3.42;;
66870;SDS011;53780;44.998;9.926;2023-04-16T01:27:49;8.38;;;3.75;;
66870;SDS011;53780;44.998;9.926;2023-04-16T01:30:54;12.10;;;4.03;;
66870;SDS011;53780;44.998;9.926;2023-04-16T01:34:21;7.72;;;3.47;;
66870;SDS011;53780;44.998;9.926;2023-04-16T01:37:26;7.13;;;3.75;;
66870;SDS011;53780;44.998;9.926;2023-04-16T01:40:30;8.90;;;3.70;;
66870;SDS011;53780;44.998;9.926;2023-04-16T01:43:34;7.50;;;3.30;;
66870;SDS011;53780;44.998;9.926;2023-04-16T01:46:38;7.20;;;3.17;;
66870;SDS011;53780;44.998;9.926;2023-04-16T01:49:41;8.55;;;3.30;;
66870;SDS011;53780;44.998;9.926;2023-04-16T01:52:48;7.35;;;2.92;;
66870;SDS011;53780;44.998;9.926;2023-04-16T01:55:51;7.05;;;2.75;;
66870;SDS011;53780;44.998;9.926;2023-04-16T01:58:55;8.63;;;3.30;;
66870;SDS011;53780;44.998;9.926;2023-04-16T02:02:02;7.97;;;3.00;;
66870;SDS011;53780;44.998;9.926;2023-04-16T02:05:12;7.20;;;3.00;;
66870;SDS011;53780;44.998;9.926;2023-04-16T02:08:16;7.43;;;3.17;;
66870;SDS011;53780;44.998;9.926;2023-04-16T02:11:21;7.68;;;3.25;;
66870;SDS011;53780;44.998;9.926;2023-04-16T02:14:25;8.10;;;3.95;;
66870;SDS011;53780;44.998;9.926;2023-04-16T02:17:29;6.63;;;3.33;;
66870;SDS011;53780;44.998;9.926;2023-04-16T02:20:46;7.53;;;3.10;;
66870;SDS011;53780;44.998;9.926;2023-04-16T02:23:51;6.35;;;2.90;;
66870;SDS011;53780;44.998;9.926;2023-04-16T02:27:01;9.20;;;3.10;;
66870;SDS011;53780;44.998;9.926;2023-04-16T02:30:06;6.57;;;2.90;;
66870;SDS011;53780;44.998;9.926;2023-04-16T02:33:11;10.53;;;2.90;;
66870;SDS011;53780;44.998;9.926;2023-04-16T02:36:21;6.35;;;3.03;;
66870;SDS011;53780;44.998;9.926;2023-04-16T02:39:25;6.88;;;3.30;;
66870;SDS011;53780;44.998;9.926;2023-04-16T02:42:30;6.72;;;2.78;;
66870;SDS011;53780;44.998;9.926;2023-04-16T02:45:34;8.45;;;3.28;;
66870;SDS011;53780;44.998;9.926;2023-04-16T02:48:38;7.40;;;3.00;;
66870;SDS011;53780;44.998;9.926;2023-04-16T02:51:42;7.93;;;3.00;;
66870;SDS011;53780;44.998;9.926;2023-04-16T02:54:46;7.13;;;2.90;;
66870;SDS011;53780;44.998;9.926;2023-04-16T02:57:49;6.50;;;2.70;;
66870;SDS011;53780;44.998;9.926;2023-04-16T03:00:55;8.65;;;2.80;;
66870;SDS011;53780;44.998;9.926;2023-04-16T03:03:58;6.93;;;2.70;;
66870;SDS011;53780;44.998;9.926;2023-04-16T03:07:02;6.55;;;2.42;;
66870;SDS011;53780;44.998;9.926;2023-04-16T03:10:06;6.65;;;2.50;;
66870;SDS011;53780;44.998;9.926;2023-04-16T03:13:11;7.70;;;2.72;;
66870;SDS011;53780;44.998;9.926;2023-04-16T03:16:15;8.27;;;3.03;;
66870;SDS011;53780;44.998;9.926;2023-04-16T03:19:19;9.53;;;2.60;;
66870;SDS011;53780;44.998;9.926;2023-04-16T03:22:23;5.63;;;2.30;;
66870;SDS011;53780;44.998;9.926;2023-04-16T03:25:26;7.70;;;2.38;;
66870;SDS011;53780;44.998;9.926;2023-04-16T03:28:30;7.10;;;2.45;;
66870;SDS011;53780;44.998;9.926;2023-04-16T03:31:35;7.43;;;2.20;;
66870;SDS011;53780;44.998;9.926;2023-04-16T03:34:39;7.00;;;2.40;;
66870;SDS011;53780;44.998;9.926;2023-04-16T03:37:43;4.55;;;1.90;;
66870;SDS011;53780;44.998;9.926;2023-04-16T03:40:46;6.78;;;2.05;;
66870;SDS011;53780;44.998;9.926;2023-04-16T03:43:52;7.32;;;2.60;;
66870;SDS011;53780;44.998;9.926;2023-04-16T03:46:55;7.25;;;2.40;;
66870;SDS011;53780;44.998;9.926;2023-04-16T03:49:59;30.83;;;13.10;;
66870;SDS011;53780;44.998;9.926;2023-04-16T03:53:04;12.70;;;6.88;;
66870;SDS011;53780;44.998;9.926;2023-04-16T03:56:09;11.27;;;5.10;;
66870;SDS011;53780;44.998;9.926;2023-04-16T03:59:13;7.07;;;3.00;;
66870;SDS011;53780;44.998;9.926;2023-04-16T04:02:17;5.85;;;2.67;;
66870;SDS011;53780;44.998;9.926;2023-04-16T04:05:21;6.70;;;2.67;;
66870;SDS011;53780;44.998;9.926;2023-04-16T04:08:26;8.15;;;3.00;;
66870;SDS011;53780;44.998;9.926;2023-04-16T04:11:30;7.75;;;3.22;;
66870;SDS011;53780;44.998;9.926;2023-04-16T04:14:34;8.48;;;3.40;;
66870;SDS011;53780;44.998;9.926;2023-04-16T04:17:42;6.43;;;2.90;;
66870;SDS011;53780;44.998;9.926;2023-04-16T04:20:46;6.50;;;2.80;;
66870;SDS011;53780;44.998;9.926;2023-04-16T04:23:53;7.15;;;2.88;;
66870;SDS011;53780;44.998;9.926;2023-04-16T04:26:57;6.85;;;2.88;;
66870;SDS011;53780;44.998;9.926;2023-04-16T04:30:01;7.28;;;3.05;;
66870;SDS011;53780;44.998;9.926;2023-04-16T04:33:07;8.35;;;3.17;;
66870;SDS011;53780;44.998;9.926;2023-04-16T04:36:11;8.20;;;3.50;;
66870;SDS011;53780;44.998;9.926;2023-04-16T04:39:14;9.73;;;3.70;;
66870;SDS011;53780;44.998;9.926;2023-04-16T04:42:20;7.03;;;3.42;;
66870;SDS011;53780;44.998;9.926;2023-04-16T04:45:24;10.60;;;3.30;;
66870;SDS011;53780;44.998;9.926;2023-04-16T04:48:30;7.05;;;3.30;;
66870;SDS011;53780;44.998;9.926;2023-04-16T04:51:33;7.97;;;3.40;;
66870;SDS011;53780;44.998;9.926;2023-04-16T04:54:38;7.13;;;3.10;;
66870;SDS011;53780;44.998;9.926;2023-04-16T04:57:44;6.43;;;2.42;;
66870;SDS011;53780;44.998;9.926;2023-04-16T05:00:47;5.60;;;2.58;;
66870;SDS011;53780;44.998;9.926;2023-04-16T05:03:51;9.82;;;2.53;;
66870;SDS011;53780;44.998;9.926;2023-04-16T05:06:55;6.47;;;2.50;;
66870;SDS011;53780;44.998;9.926;2023-04-16T05:09:58;5.35;;;2.22;;
66870;SDS011;53780;44.998;9.926;2023-04-16T05:13:03;5.13;;;1.75;;
66870;SDS011;53780;44.998;9.926;2023-04-16T05:16:06;4.10;;;1.63;;
66870;SDS011;53780;44.998;9.926;2023-04-16T05:19:10;5.47;;;1.90;;
66870;SDS011;53780;44.998;9.926;2023-04-16T05:22:14;4.80;;;1.70;;
66870;SDS011;53780;44.998;9.926;2023-04-16T05:25:21;5.97;;;1.50;;
66870;SDS011;53780;44.998;9.926;2023-04-16T05:28:24;4.70;;;1.50;;
66870;SDS011;53780;44.998;9.926;2023-04-16T05:31:28;5.45;;;1.77;;
66870;SDS011;53780;44.998;9.926;2023-04-16T05:34:32;5.78;;;2.08;;
66870;SDS011;53780;44.998;9.926;2023-04-16T05:37:36;5.90;;;2.10;;
66870;SDS011;53780;44.998;9.926;2023-04-16T05:40:40;4.95;;;1.90;;
66870;SDS011;53780;44.998;9.926;2023-04-16T05:43:43;5.43;;;1.73;;
66870;SDS011;53780;44.998;9.926;2023-04-16T05:46:47;5.03;;;1.77;;
66870;SDS011;53780;44.998;9.926;2023-04-16T05:49:51;3.70;;;1.35;;
66870;SDS011;53780;44.998;9.926;2023-04-16T05:52:55;4.33;;;1.63;;
66870;SDS011;53780;44.998;9.926;2023-04-16T05:55:59;3.53;;;1.45;;
66870;SDS011;53780;44.998;9.926;2023-04-16T05:59:03;6.30;;;1.30;;
66870;SDS011;53780;44.998;9.926;2023-04-16T06:02:07;5.35;;;1.30;;
66870;SDS011;53780;44.998;9.926;2023-04-16T06:05:11;6.60;;;1.20;;
66870;SDS011;53780;44.998;9.926;2023-04-16T06:08:15;3.30;;;1.03;;
66870;SDS011;53780;44.998;9.926;2023-04-16T06:11:19;4.60;;;1.27;;
66870;SDS011;53780;44.998;9.926;2023-04-16T06:14:23;5.00;;;1.45;;
66870;SDS011;53780;44.998;9.926;2023-04-16T06:17:26;5.47;;;1.40;;
66870;SDS011;53780;44.998;9.926;2023-04-16T06:20:30;4.30;;;1.38;;
66870;SDS011;53780;44.998;9.926;2023-04-16T06:23:34;4.70;;;1.43;;
66870;SDS011;53780;44.998;9.926;2023-04-16T06:26:38;6.07;;;1.40;;
66870;SDS011;53780;44.998;9.926;2023-04-16T06:29:42;5.53;;;1.70;;
66870;SDS011;53780;44.998;9.926;2023-04-16T06:32:47;4.80;;;1.63;;
66870;SDS011;53780;44.998;9.926;2023-04-16T06:35:51;5.90;;;1.58;;
66870;SDS011;53780;44.998;9.926;2023-04-16T06:38:55;5.40;;;1.70;;
66870;SDS011;53780;44.998;9.926;2023-04-16T06:41:59;4.03;;;1.33;;
66870;SDS011;53780;44.998;9.926;2023-04-16T06:45:04;5.13;;;1.50;;
66870;SDS011;53780;44.998;9.926;2023-04-16T06:48:09;4.22;;;1.33;;
66870;SDS011;53780;44.998;9.926;2023-04-16T06:51:13;6.15;;;1.40;;
66870;SDS011;53780;44.998;9.926;2023-04-16T06:54:17;4.50;;;1.47;;
66870;SDS011;53780;44.998;9.926;2023-04-16T06:57:22;4.88;;;1.48;;
66870;SDS011;53780;44.998;9.926;2023-04-16T07:00:25;4.93;;;1.90;;
66870;SDS011;53780;44.998;9.926;2023-04-16T07:03:29;6.15;;;2.03;;
66870;SDS011;53780;44.998;9.926;2023-04-16T07:06:33;6.63;;;2.53;;
66870;SDS011;53780;44.998;9.926;2023-04-16T07:09:37;6.13;;;1.83;;
66870;SDS011;53780;44.998;9.926;2023-04-16T07:12:41;4.72;;;2.10;;
66870;SDS011;53780;44.998;9.926;2023-04-16T07:15:45;6.10;;;2.42;;
66870;SDS011;53780;44.998;9.926;2023-04-16T07:18:48;5.45;;;2.30;;
66870;SDS011;53780;44.998;9.926;2023-04-16T07:21:52;5.63;;;2.60;;
66870;SDS011;53780;44.998;9.926;2023-04-16T07:24:56;8.10;;;3.23;;
66870;SDS011;53780;44.998;9.926;2023-04-16T07:28:00;8.77;;;3.30;;
66870;SDS011;53780;44.998;9.926;2023-04-16T07:31:04;6.95;;;2.88;;
66870;SDS011;53780;44.998;9.926;2023-04-16T07:34:08;7.53;;;3.13;;
66870;SDS011;53780;44.998;9.926;2023-04-16T07:37:11;5.95;;;2.90;;
66870;SDS011;53780;44.998;9.926;2023-04-16T07:40:15;5.67;;;3.10;;
66870;SDS011;53780;44.998;9.926;2023-04-16T07:43:20;6.70;;;3.45;;
66870;SDS011;53780;44.998;9.926;2023-04-16T07:46:24;5.28;;;2.83;;
66870;SDS011;53780;44.998;9.926;2023-04-16T07:49:27;7.85;;;3.10;;
66870;SDS011;53780;44.998;9.926;2023-04-16T07:52:33;6.32;;;2.80;;
66870;SDS011;53780;44.998;9.926;2023-04-16T07:55:36;6.50;;;3.13;;
66870;SDS011;53780;44.998;9.926;2023-04-16T07:58:40;5.80;;;2.63;;
66870;SDS011;53780;44.998;9.926;2023-04-16T08:01:45;7.20;;;2.60;;
66870;SDS011;53780;44.998;9.926;2023-04-16T08:04:49;6.95;;;2.50;;
66870;SDS011;53780;44.998;9.926;2023-04-16T08:07:53;6.18;;;3.15;;
66870;SDS011;53780;44.998;9.926;2023-04-16T08:10:57;5.90;;;3.03;;
66870;SDS011;53780;44.998;9.926;2023-04-16T08:14:01;6.75;;;2.92;;
66870;SDS011;53780;44.998;9.926;2023-04-16T08:17:05;6.50;;;3.10;;
66870;SDS011;53780;44.998;9.926;2023-04-16T08:20:09;9.95;;;4.53;;
66870;SDS011;53780;44.998;9.926;2023-04-16T08:23:13;7.93;;;3.80;;
66870;SDS011;53780;44.998;9.926;2023-04-16T08:26:17;6.37;;;3.30;;
66870;SDS011;53780;44.998;9.926;2023-04-16T08:29:21;8.70;;;3.80;;
66870;SDS011;53780;44.998;9.926;2023-04-16T08:32:28;5.78;;;3.40;;
66870;SDS011;53780;44.998;9.926;2023-04-16T08:35:32;7.50;;;3.35;;
66870;SDS011;53780;44.998;9.926;2023-04-16T08:38:36;8.52;;;3.50;;
66870;SDS011;53780;44.998;9.926;2023-04-16T08:41:40;6.77;;;3.10;;
66870;SDS011;53780;44.998;9.926;2023-04-16T08:44:47;7.25;;;3.03;;
66870;SDS011;53780;44.998;9.926;2023-04-16T08:47:52;7.63;;;3.38;;
66870;SDS011;53780;44.998;9.926;2023-04-16T08:50:56;6.97;;;3.22;;
66870;SDS011;53780;44.998;9.926;2023-04-16T08:54:02;9.95;;;3.55;;
66870;SDS011;53780;44.998;9.926;2023-04-16T08:57:09;8.60;;;3.60;;
66870;SDS011;53780;44.998;9.926;2023-04-16T09:00:14;7.47;;;3.40;;
66870;SDS011;53780;44.998;9.926;2023-04-16T09:03:19;8.48;;;4.22;;
66870;SDS011;53780;44.998;9.926;2023-04-16T09:06:24;8.07;;;3.88;;
66870;SDS011;53780;44.998;9.926;2023-04-16T09:09:29;9.07;;;4.03;;
66870;SDS011;53780;44.998;9.926;2023-04-16T09:12:34;8.17;;;3.43;;
66870;SDS011;53780;44.998;9.926;2023-04-16T09:15:38;7.80;;;3.45;;
66870;SDS011;53780;44.998;9.926;2023-04-16T09:18:43;6.78;;;3.30;;
66870;SDS011;53780;44.998;9.926;2023-04-16T09:21:50;9.00;;;2.35;;
66870;SDS011;53780;44.998;9.926;2023-04-16T09:24:54;6.38;;;2.65;;
66870;SDS011;53780;44.998;9.926;2023-04-16T09:27:58;7.37;;;2.80;;
66870;SDS011;53780;44.998;9.926;2023-04-16T09:31:35;6.72;;;2.75;;
66870;SDS011;53780;44.998;9.926;2023-04-16T09:34:32;6.97;;;3.15;;
66870;SDS011;53780;44.998;9.926;2023-04-16T09:37:37;6.97;;;3.00;;
66870;SDS011;53780;44.998;9.926;2023-04-16T09:40:41;7.88;;;3.08;;
66870;SDS011;53780;44.998;9.926;2023-04-16T09:43:48;7.97;;;2.80;;
66870;SDS011;53780;44.998;9.926;2023-04-16T09:46:58;5.88;;;2.78;;
66870;SDS011;53780;44.998;9.926;2023-04-16T09:50:14;8.80;;;3.55;;
66870;SDS011;53780;44.998;9.926;2023-04-16T09:53:23;7.10;;;3.33;;
66870;SDS011;53780;44.998;9.926;2023-04-16T09:56:31;8.27;;;3.25;;
66870;SDS011;53780;44.998;9.926;2023-04-16T09:59:35;7.37;;;2.87;;
66870;SDS011;53780;44.998;9.926;2023-04-16T10:02:40;6.32;;;3.40;;
66870;SDS011;53780;44.998;9.926;2023-04-16T10:05:44;10.10;;;3.33;;
66870;SDS011;53780;44.998;9.926;2023-04-16T10:08:48;9.00;;;3.08;;
66870;SDS011;53780;44.998;9.926;2023-04-16T10:11:53;7.35;;;3.40;;
66870;SDS011;53780;44.998;9.926;2023-04-16T10:14:57;7.17;;;3.10;;
66870;SDS011;53780;44.998;9.926;2023-04-16T10:18:01;6.72;;;3.58;;
66870;SDS011;53780;44.998;9.926;2023-04-16T10:21:07;7.65;;;3.70;;
66870;SDS011;53780;44.998;9.926;2023-04-16T10:24:13;6.43;;;3.15;;
66870;SDS011;53780;44.998;9.926;2023-04-16T10:27:19;8.35;;;3.30;;
66870;SDS011;53780;44.998;9.926;2023-04-16T10:30:25;7.40;;;2.87;;
66870;SDS011;53780;44.998;9.926;2023-04-16T10:33:33;6.60;;;2.40;;
66870;SDS011;53780;44.998;9.926;2023-04-16T10:36:38;6.22;;;2.75;;
66870;SDS011;53780;44.998;9.926;2023-04-16T10:39:42;7.78;;;2.90;;
66870;SDS011;53780;44.998;9.926;2023-04-16T10:42:53;7.60;;;2.85;;
66870;SDS011;53780;44.998;9.926;2023-04-16T10:46:16;7.97;;;2.60;;
66870;SDS011;53780;44.998;9.926;2023-04-16T10:52:25;6.60;;;2.45;;
66870;SDS011;53780;44.998;9.926;2023-04-16T10:55:32;12.25;;;3.78;;
66870;SDS011;53780;44.998;9.926;2023-04-16T10:58:41;7.07;;;2.72;;
66870;SDS011;53780;44.998;9.926;2023-04-16T11:01:46;13.17;;;3.83;;
66870;SDS011;53780;44.998;9.926;2023-04-16T11:04:54;6.57;;;2.50;;
66870;SDS011;53780;44.998;9.926;2023-04-16T11:07:59;7.15;;;2.75;;
66870;SDS011;53780;44.998;9.926;2023-04-16T11:11:17;6.70;;;2.20;;
66870;SDS011;53780;44.998;9.926;2023-04-16T11:14:21;6.00;;;2.13;;
66870;SDS011;53780;44.998;9.926;2023-04-16T11:17:30;5.23;;;2.10;;
66870;SDS011;53780;44.998;9.926;2023-04-16T11:20:45;8.20;;;2.40;;
66870;SDS011;53780;44.998;9.926;2023-04-16T11:23:50;5.90;;;2.45;;
66870;SDS011;53780;44.998;9.926;2023-04-16T11:55:42;6.18;;;2.40;;
66870;SDS011;53780;44.998;9.926;2023-04-16T12:05:42;4.43;;;1.20;;
66870;SDS011;53780;44.998;9.926;2023-04-16T12:08:46;4.78;;;1.20;;
66870;SDS011;53780;44.998;9.926;2023-04-16T12:11:50;5.35;;;1.90;;
66870;SDS011;53780;44.998;9.926;2023-04-16T12:14:53;6.53;;;1.83;;
66870;SDS011;53780;44.998;9.926;2023-04-16T12:18:05;8.35;;;1.80;;
66870;SDS011;53780;44.998;9.926;2023-04-16T12:21:10;5.60;;;2.10;;
66870;SDS011;53780;44.998;9.926;2023-04-16T12:24:15;6.88;;;1.88;;
66870;SDS011;53780;44.998;9.926;2023-04-16T12:27:25;5.55;;;1.60;;
66870;SDS011;53780;44.998;9.926;2023-04-16T12:30:31;5.60;;;1.80;;
66870;SDS011;53780;44.998;9.926;2023-04-16T12:33:34;4.65;;;1.83;;
66870;SDS011;53780;44.998;9.926;2023-04-16T12:36:38;5.60;;;1.90;;
66870;SDS011;53780;44.998;9.926;2023-04-16T12:39:42;3.58;;;1.70;;
66870;SDS011;53780;44.998;9.926;2023-04-16T12:42:46;4.75;;;1.77;;
66870;SDS011;53780;44.998;9.926;2023-04-16T12:45:49;7.93;;;2.10;;
66870;SDS011;53780;44.998;9.926;2023-04-16T12:48:54;6.57;;;1.50;;
66870;SDS011;53780;44.998;9.926;2023-04-16T12:52:00;4.35;;;1.15;;
66870;SDS011;53780;44.998;9.926;2023-04-16T12:55:05;4.93;;;1.17;;
66870;SDS011;53780;44.998;9.926;2023-04-16T12:58:10;3.70;;;1.27;;
66870;SDS011;53780;44.998;9.926;2023-04-16T13:01:15;5.97;;;1.50;;
66870;SDS011;53780;44.998;9.926;2023-04-16T13:04:19;4.22;;;1.40;;
66870;SDS011;53780;44.998;9.926;2023-04-16T13:07:23;6.72;;;1.25;;
66870;SDS011;53780;44.998;9.926;2023-04-16T13:10:29;4.00;;;1.15;;
66870;SDS011;53780;44.998;9.926;2023-04-16T13:13:33;4.85;;;1.00;;
66870;SDS011;53780;44.998;9.926;2023-04-16T13:16:37;4.20;;;0.90;;
66870;SDS011;53780;44.998;9.926;2023-04-16T13:19:41;3.60;;;0.85;;
66870;SDS011;53780;44.998;9.926;2023-04-16T13:22:45;4.43;;;1.05;;
66870;SDS011;53780;44.998;9.926;2023-04-16T13:25:48;4.40;;;1.02;;
66870;SDS011;53780;44.998;9.926;2023-04-16T13:28:52;5.95;;;0.98;;
66870;SDS011;53780;44.998;9.926;2023-04-16T13:31:56;4.07;;;0.90;;
66870;SDS011;53780;44.998;9.926;2023-04-16T13:35:00;4.50;;;1.10;;
66870;SDS011;53780;44.998;9.926;2023-04-16T13:38:04;4.65;;;1.00;;
66870;SDS011;53780;44.998;9.926;2023-04-16T13:41:08;2.65;;;0.60;;
66870;SDS011;53780;44.998;9.926;2023-04-16T13:44:12;5.10;;;0.68;;
66870;SDS011;53780;44.998;9.926;2023-04-16T13:47:16;4.93;;;0.80;;
66870;SDS011;53780;44.998;9.926;2023-04-16T13:50:20;3.63;;;0.80;;
66870;SDS011;53780;44.998;9.926;2023-04-16T13:53:23;3.53;;;0.75;;
66870;SDS011;53780;44.998;9.926;2023-04-16T13:56:28;4.15;;;1.50;;
66870;SDS011;53780;44.998;9.926;2023-04-16T13:59:32;3.28;;;0.88;;
66870;SDS011;53780;44.998;9.926;2023-04-16T14:02:35;3.60;;;1.10;;
66870;SDS011;53780;44.998;9.926;2023-04-16T14:05:39;3.63;;;0.70;;
66870;SDS011;53780;44.998;9.926;2023-04-16T14:08:44;3.33;;;0.80;;
66870;SDS011;53780;44.998;9.926;2023-04-16T14:11:48;3.13;;;0.90;;
66870;SDS011;53780;44.998;9.926;2023-04-16T14:14:52;2.53;;;0.70;;
66870;SDS011;53780;44.998;9.926;2023-04-16T14:17:55;3.93;;;0.70;;
66870;SDS011;53780;44.998;9.926;2023-04-16T14:20:59;3.25;;;0.57;;
66870;SDS011;53780;44.998;9.926;2023-04-16T14:24:04;3.47;;;0.50;;
66870;SDS011;53780;44.998;9.926;2023-04-16T14:27:09;3.83;;;0.98;;
66870;SDS011;53780;44.998;9.926;2023-04-16T14:30:13;2.90;;;0.80;;
66870;SDS011;53780;44.998;9.926;2023-04-16T14:33:17;2.37;;;0.63;;
66870;SDS011;53780;44.998;9.926;2023-04-16T14:36:20;3.67;;;0.70;;
66870;SDS011;53780;44.998;9.926;2023-04-16T14:39:24;2.70;;;0.75;;
66870;SDS011;53780;44.998;9.926;2023-04-16T14:42:28;3.47;;;0.77;;
66870;SDS011;53780;44.998;9.926;2023-04-16T14:45:32;2.88;;;0.82;;
66870;SDS011;53780;44.998;9.926;2023-04-16T14:48:36;4.37;;;1.17;;
66870;SDS011;53780;44.998;9.926;2023-04-16T14:51:39;2.88;;;0.60;;
66870;SDS011;53780;44.998;9.926;2023-04-16T14:54:44;3.65;;;1.00;;
66870;SDS011;53780;44.998;9.926;2023-04-16T14:57:48;3.08;;;0.98;;
66870;SDS011;53780;44.998;9.926;2023-04-16T15:00:52;5.03;;;0.82;;
66870;SDS011;53780;44.998;9.926;2023-04-16T15:03:55;3.50;;;0.80;;
66870;SDS011;53780;44.998;9.926;2023-04-16T15:06:59;3.28;;;0.77;;
66870;SDS011;53780;44.998;9.926;2023-04-16T15:10:03;4.22;;;0.80;;
66870;SDS011;53780;44.998;9.926;2023-04-16T15:13:09;2.95;;;0.70;;
66870;SDS011;53780;44.998;9.926;2023-04-16T15:16:12;2.80;;;0.80;;
66870;SDS011;53780;44.998;9.926;2023-04-16T15:19:16;2.97;;;0.50;;
66870;SDS011;53780;44.998;9.926;2023-04-16T15:22:20;2.70;;;0.75;;
66870;SDS011;53780;44.998;9.926;2023-04-16T15:25:23;2.70;;;0.60;;
66870;SDS011;53780;44.998;9.926;2023-04-16T15:28:28;3.75;;;0.73;;
66870;SDS011;53780;44.998;9.926;2023-04-16T15:31:32;2.85;;;0.75;;
66870;SDS011;53780;44.998;9.926;2023-04-16T15:34:35;2.30;;;0.70;;
66870;SDS011;53780;44.998;9.926;2023-04-16T15:37:39;2.40;;;0.60;;
66870;SDS011;53780;44.998;9.926;2023-04-16T15:40:43;4.25;;;0.70;;
66870;SDS011;53780;44.998;9.926;2023-04-16T15:43:48;2.47;;;0.60;;
66870;SDS011;53780;44.998;9.926;2023-04-16T15:46:51;3.63;;;0.70;;
66870;SDS011;53780;44.998;9.926;2023-04-16T15:49:55;3.63;;;0.50;;
66870;SDS011;53780;44.998;9.926;2023-04-16T15:52:59;3.45;;;0.63;;
66870;SDS011;53780;44.998;9.926;2023-04-16T15:56:03;3.50;;;0.50;;
66870;SDS011;53780;44.998;9.926;2023-04-16T15:59:08;2.50;;;0.40;;
66870;SDS011;53780;44.998;9.926;2023-04-16T16:02:12;3.05;;;0.65;;
66870;SDS011;53780;44.998;9.926;2023-04-16T16:05:16;2.10;;;0.50;;
66870;SDS011;53780;44.998;9.926;2023-04-16T16:08:20;2.55;;;0.50;;
66870;SDS011;53780;44.998;9.926;2023-04-16T16:11:23;3.72;;;0.50;;
66870;SDS011;53780;44.998;9.926;2023-04-16T16:14:27;3.28;;;0.50;;
66870;SDS011;53780;44.998;9.926;2023-04-16T16:17:31;2.50;;;0.50;;
66870;SDS011;53780;44.998;9.926;2023-04-16T16:20:35;2.40;;;0.50;;
66870;SDS011;53780;44.998;9.926;2023-04-16T16:23:40;3.50;;;0.47;;
66870;SDS011;53780;44.998;9.926;2023-04-16T16:26:44;2.80;;;0.70;;
66870;SDS011;53780;44.998;9.926;2023-04-16T16:29:48;2.10;;;0.40;;
66870;SDS011;53780;44.998;9.926;2023-04-16T16:32:52;2.10;;;0.50;;
66870;SDS011;53780;44.998;9.926;2023-04-16T16:35:56;2.50;;;0.60;;
66870;SDS011;53780;44.998;9.926;2023-04-16T16:39:01;2.78;;;0.65;;
66870;SDS011;53780;44.998;9.926;2023-04-16T16:42:06;3.22;;;0.70;;
66870;SDS011;53780;44.998;9.926;2023-04-16T16:45:11;3.15;;;0.80;;
66870;SDS011;53780;44.998;9.926;2023-04-16T16:48:15;4.18;;;0.90;;
66870;SDS011;53780;44.998;9.926;2023-04-16T16:51:20;4.10;;;0.90;;
66870;SDS011;53780;44.998;9.926;2023-04-16T16:54:24;2.60;;;0.77;;
66870;SDS011;53780;44.998;9.926;2023-04-16T16:57:29;5.18;;;0.80;;
66870;SDS011;53780;44.998;9.926;2023-04-16T17:00:33;3.33;;;1.10;;
66870;SDS011;53780;44.998;9.926;2023-04-16T17:03:38;3.50;;;1.20;;
66870;SDS011;53780;44.998;9.926;2023-04-16T17:06:43;4.13;;;1.40;;
66870;SDS011;53780;44.998;9.926;2023-04-16T17:09:46;4.60;;;1.20;;
66870;SDS011;53780;44.998;9.926;2023-04-16T17:12:50;4.10;;;1.58;;
66870;SDS011;53780;44.998;9.926;2023-04-16T17:15:54;3.75;;;1.50;;
66870;SDS011;53780;44.998;9.926;2023-04-16T17:18:58;4.35;;;1.33;;
66870;SDS011;53780;44.998;9.926;2023-04-16T17:22:02;3.58;;;1.20;;
66870;SDS011;53780;44.998;9.926;2023-04-16T17:25:07;3.90;;;1.40;;
66870;SDS011;53780;44.998;9.926;2023-04-16T17:28:12;4.65;;;1.60;;
66870;SDS011;53780;44.998;9.926;2023-04-16T17:31:15;4.00;;;1.42;;
66870;SDS011;53780;44.998;9.926;2023-04-16T17:34:19;4.35;;;1.80;;
66870;SDS011;53780;44.998;9.926;2023-04-16T17:37:24;5.78;;;1.80;;
66870;SDS011;53780;44.998;9.926;2023-04-16T17:40:28;4.97;;;1.60;;
66870;SDS011;53780;44.998;9.926;2023-04-16T17:43:32;4.57;;;1.42;;
66870;SDS011;53780;44.998;9.926;2023-04-16T17:46:35;6.03;;;1.80;;
66870;SDS011;53780;44.998;9.926;2023-04-16T17:49:39;3.95;;;1.60;;
66870;SDS011;53780;44.998;9.926;2023-04-16T17:52:44;4.95;;;1.60;;
66870;SDS011;53780;44.998;9.926;2023-04-16T17:55:52;3.87;;;1.23;;
66870;SDS011;53780;44.998;9.926;2023-04-16T17:58:56;5.45;;;1.75;;
66870;SDS011;53780;44.998;9.926;2023-04-16T18:02:00;6.15;;;2.00;;
66870;SDS011;53780;44.998;9.926;2023-04-16T18:05:04;7.57;;;1.60;;
66870;SDS011;53780;44.998;9.926;2023-04-16T18:08:09;5.43;;;1.77;;
66870;SDS011;53780;44.998;9.926;2023-04-16T18:11:13;6.67;;;1.80;;
66870;SDS011;53780;44.998;9.926;2023-04-16T18:14:17;17.33;;;3.50;;
66870;SDS011;53780;44.998;9.926;2023-04-16T18:17:23;10.93;;;2.72;;
66870;SDS011;53780;44.998;9.926;2023-04-16T18:20:27;7.55;;;2.35;;
66870;SDS011;53780;44.998;9.926;2023-04-16T18:23:31;8.02;;;2.08;;
66870;SDS011;53780;44.998;9.926;2023-04-16T18:26:35;6.27;;;2.50;;
66870;SDS011;53780;44.998;9.926;2023-04-16T18:29:39;6.63;;;2.60;;
66870;SDS011;53780;44.998;9.926;2023-04-16T18:32:44;5.57;;;2.50;;
66870;SDS011;53780;44.998;9.926;2023-04-16T18:35:48;5.63;;;2.22;;
66870;SDS011;53780;44.998;9.926;2023-04-16T18:38:52;5.80;;;2.53;;
66870;SDS011;53780;44.998;9.926;2023-04-16T18:41:56;5.57;;;2.30;;
66870;SDS011;53780;44.998;9.926;2023-04-16T18:45:01;6.57;;;3.25;;
66870;SDS011;53780;44.998;9.926;2023-04-16T18:48:05;5.95;;;3.38;;
66870;SDS011;53780;44.998;9.926;2023-04-16T18:51:09;7.38;;;3.00;;
66870;SDS011;53780;44.998;9.926;2023-04-16T18:54:13;8.10;;;2.92;;
66870;SDS011;53780;44.998;9.926;2023-04-16T18:57:17;7.40;;;3.00;;
66870;SDS011;53780;44.998;9.926;2023-04-16T19:00:21;6.18;;;2.97;;
66870;SDS011;53780;44.998;9.926;2023-04-16T19:03:25;5.82;;;2.88;;
66870;SDS011;53780;44.998;9.926;2023-04-16T19:06:29;7.15;;;2.85;;
66870;SDS011;53780;44.998;9.926;2023-04-16T19:09:34;6.97;;;2.65;;
66870;SDS011;53780;44.998;9.926;2023-04-16T19:12:37;5.30;;;2.50;;